createdAt,value
2022-10-09T00:00:18.669Z,100.00
2022-10-09T00:02:47.246Z,100.00
2022-10-09T00:05:15.571Z,100.00
2022-10-09T00:07:43.602Z,100.00
2022-10-09T00:10:11.643Z,100.00
2022-10-09T00:12:39.686Z,100.00
2022-10-09T00:15:10.349Z,100.00
2022-10-09T00:17:38.375Z,100.00
2022-10-09T00:20:07.424Z,100.00
2022-10-09T00:22:35.501Z,100.00
2022-10-09T00:25:03.542Z,100.00
2022-10-09T00:27:31.605Z,100.00
2022-10-09T00:29:59.648Z,100.00
2022-10-09T00:32:29.049Z,100.00
2022-10-09T00:34:57.332Z,100.00
2022-10-09T00:37:25.349Z,100.00
2022-10-09T00:39:53.413Z,100.00
2022-10-09T00:42:21.522Z,100.00
2022-10-09T00:44:52.759Z,100.00
2022-10-09T00:47:24.233Z,100.00
2022-10-09T00:49:54.907Z,100.00
2022-10-09T00:52:23.281Z,100.00
2022-10-09T00:54:51.336Z,100.00
2022-10-09T00:57:19.377Z,100.00
2022-10-09T00:59:47.376Z,100.00
2022-10-09T01:02:15.757Z,100.00
2022-10-09T01:04:43.880Z,100.00
2022-10-09T01:07:26.027Z,100.00
2022-10-09T01:09:57.231Z,100.00
2022-10-09T01:12:31.052Z,100.00
2022-10-09T01:15:02.513Z,100.00
2022-10-09T01:17:34.442Z,100.00
2022-10-09T01:20:19.417Z,100.00
2022-10-09T01:22:55.448Z,100.00
2022-10-09T01:25:26.664Z,100.00
2022-10-09T01:27:56.080Z,100.00
2022-10-09T01:30:24.434Z,100.00
2022-10-09T01:32:53.125Z,100.00
2022-10-09T01:35:21.177Z,100.00
2022-10-09T01:37:49.264Z,100.00
2022-10-09T01:40:17.573Z,100.00
2022-10-09T01:42:47.323Z,100.00
2022-10-09T01:45:17.148Z,100.00
2022-10-09T01:47:45.203Z,100.00
2022-10-09T01:50:17.111Z,100.00
2022-10-09T01:52:47.535Z,100.00
2022-10-09T01:55:25.114Z,100.00
2022-10-09T01:57:54.196Z,100.00
2022-10-09T02:00:23.687Z,100.00
2022-10-09T02:02:52.361Z,100.00
2022-10-09T02:05:22.359Z,100.00
2022-10-09T02:07:50.464Z,100.00
2022-10-09T02:10:18.909Z,100.00
2022-10-09T02:12:48.378Z,100.00
2022-10-09T02:15:16.789Z,100.00
2022-10-09T02:17:47.715Z,100.00
2022-10-09T02:20:18.079Z,100.00
2022-10-09T02:22:46.358Z,100.00
2022-10-09T02:25:14.906Z,100.00
2022-10-09T02:27:42.961Z,100.00
2022-10-09T02:30:11.358Z,100.00
2022-10-09T02:32:39.969Z,100.00
2022-10-09T02:35:09.975Z,100.00
2022-10-09T02:37:38.286Z,100.00
2022-10-09T02:40:10.689Z,100.00
2022-10-09T02:42:39.077Z,100.00
2022-10-09T02:45:08.788Z,100.00
2022-10-09T02:47:36.812Z,100.00
2022-10-09T02:50:05.820Z,100.00
2022-10-09T02:52:35.216Z,100.00
2022-10-09T02:55:03.253Z,100.00
2022-10-09T02:57:32.478Z,100.00
2022-10-09T03:00:00.650Z,100.00
2022-10-09T03:02:28.837Z,100.00
2022-10-09T03:04:57.285Z,100.00
2022-10-09T03:07:25.396Z,100.00
2022-10-09T03:09:54.881Z,100.00
2022-10-09T03:12:22.923Z,100.00
2022-10-09T03:14:50.937Z,100.00
2022-10-09T03:17:19.308Z,100.00
2022-10-09T03:19:47.333Z,100.00
2022-10-09T03:22:15.389Z,100.00
2022-10-09T03:24:43.402Z,100.00
2022-10-09T03:27:13.135Z,100.00
2022-10-09T03:29:41.317Z,100.00
2022-10-09T03:32:09.737Z,100.00
2022-10-09T03:34:37.757Z,100.00
2022-10-09T03:37:05.789Z,100.00
2022-10-09T03:39:33.846Z,100.00
2022-10-09T03:42:01.853Z,100.00
2022-10-09T03:44:31.581Z,100.00
2022-10-09T03:46:59.706Z,100.00
2022-10-09T03:49:27.720Z,100.00
2022-10-09T03:51:55.764Z,100.00
2022-10-09T03:54:23.793Z,100.00
2022-10-09T03:56:51.940Z,100.00
2022-10-09T03:59:20.259Z,100.00
2022-10-09T04:01:49.694Z,100.00
2022-10-09T04:04:17.921Z,100.00
2022-10-09T04:06:45.976Z,100.00
2022-10-09T04:09:13.991Z,100.00
2022-10-09T04:11:42.033Z,100.00
2022-10-09T04:14:10.823Z,100.00
2022-10-09T04:16:38.946Z,100.00
2022-10-09T04:19:08.457Z,100.00
2022-10-09T04:21:36.554Z,100.00
2022-10-09T04:24:08.300Z,100.00
2022-10-09T04:26:36.721Z,100.00
2022-10-09T04:29:04.741Z,100.00
2022-10-09T04:31:32.830Z,100.00
2022-10-09T04:34:00.948Z,100.00
2022-10-09T04:36:30.356Z,100.00
2022-10-09T04:38:58.441Z,100.00
2022-10-09T04:41:26.873Z,100.00
2022-10-09T04:43:55.991Z,100.00
2022-10-09T04:46:24.189Z,100.00
2022-10-09T04:48:52.245Z,100.00
2022-10-09T04:51:20.343Z,100.00
2022-10-09T04:53:50.082Z,100.00
2022-10-09T04:56:18.976Z,100.00
2022-10-09T04:58:47.238Z,100.00
2022-10-09T05:01:16.806Z,100.00
2022-10-09T05:03:44.912Z,100.00
2022-10-09T05:06:13.526Z,100.00
2022-10-09T05:08:42.433Z,100.00
2022-10-09T05:11:12.802Z,100.00
2022-10-09T05:13:41.751Z,100.00
2022-10-09T05:16:10.544Z,100.00
2022-10-09T05:18:43.126Z,100.00
2022-10-09T05:21:11.527Z,100.00
2022-10-09T05:23:40.014Z,100.00
2022-10-09T05:26:08.672Z,100.00
2022-10-09T05:28:38.154Z,100.00
2022-10-09T05:31:06.423Z,100.00
2022-10-09T05:33:34.795Z,100.00
2022-10-09T05:36:03.873Z,100.00
2022-10-09T05:38:32.967Z,100.00
2022-10-09T05:41:02.017Z,100.00
2022-10-09T05:43:30.960Z,100.00
2022-10-09T05:46:08.077Z,100.00
2022-10-09T05:48:36.538Z,100.00
2022-10-09T05:51:09.282Z,100.00
2022-10-09T05:53:37.345Z,100.00
2022-10-09T05:56:13.052Z,100.00
2022-10-09T05:58:41.161Z,100.00
2022-10-09T06:01:10.979Z,100.00
2022-10-09T06:03:39.150Z,100.00
2022-10-09T06:06:08.488Z,100.00
2022-10-09T06:08:37.054Z,100.00
2022-10-09T06:11:12.908Z,100.00
2022-10-09T06:13:40.980Z,100.00
2022-10-09T06:16:11.757Z,100.00
2022-10-09T06:18:39.875Z,100.00
2022-10-09T06:21:07.913Z,100.00
2022-10-09T06:23:36.137Z,100.00
2022-10-09T06:26:05.495Z,100.00
2022-10-09T06:28:34.429Z,100.00
2022-10-09T06:31:03.770Z,100.00
2022-10-09T06:33:34.023Z,100.00
2022-10-09T06:36:09.743Z,100.00
2022-10-09T06:38:38.557Z,100.00
2022-10-09T06:41:07.229Z,100.00
2022-10-09T06:43:35.714Z,100.00
2022-10-09T06:46:04.205Z,100.00
2022-10-09T06:48:34.480Z,100.00
2022-10-09T06:51:03.134Z,100.00
2022-10-09T06:53:31.238Z,100.00
2022-10-09T06:55:59.519Z,100.00
2022-10-09T06:58:27.607Z,100.00
2022-10-09T07:01:04.812Z,100.00
2022-10-09T07:03:34.401Z,100.00
2022-10-09T07:06:09.807Z,100.00
2022-10-09T07:08:37.949Z,100.00
2022-10-09T07:11:10.552Z,100.00
2022-10-09T07:13:38.781Z,100.00
2022-10-09T07:16:07.403Z,100.00
2022-10-09T07:18:37.005Z,100.00
2022-10-09T07:21:05.354Z,100.00
2022-10-09T07:23:33.835Z,100.00
2022-10-09T07:26:02.165Z,100.00
2022-10-09T07:28:30.817Z,100.00
2022-10-09T07:30:59.031Z,100.00
2022-10-09T07:33:27.150Z,100.00
2022-10-09T07:35:56.853Z,100.00
2022-10-09T07:38:25.530Z,100.00
2022-10-09T07:40:53.576Z,100.00
2022-10-09T07:43:22.342Z,100.00
2022-10-09T07:45:50.461Z,100.00
2022-10-09T07:48:18.527Z,100.00
2022-10-09T07:50:46.892Z,100.00
2022-10-09T07:53:16.398Z,100.00
2022-10-09T07:55:45.951Z,100.00
2022-10-09T07:58:14.147Z,100.00
2022-10-09T08:00:42.246Z,100.00
2022-10-09T08:03:10.415Z,100.00
2022-10-09T08:05:38.795Z,100.00
2022-10-09T08:08:06.899Z,100.00
2022-10-09T08:10:36.326Z,100.00
2022-10-09T08:13:04.555Z,100.00
2022-10-09T08:15:32.653Z,100.00
2022-10-09T08:18:01.038Z,100.00
2022-10-09T08:20:29.490Z,100.00
2022-10-09T08:22:57.613Z,100.00
2022-10-09T08:25:25.727Z,100.00
2022-10-09T08:27:55.233Z,100.00
2022-10-09T08:30:23.371Z,100.00
2022-10-09T08:32:52.092Z,100.00
2022-10-09T08:35:20.214Z,100.00
2022-10-09T08:37:48.224Z,100.00
2022-10-09T08:40:17.193Z,100.00
2022-10-09T08:42:49.263Z,100.00
2022-10-09T08:45:19.372Z,100.00
2022-10-09T08:47:48.474Z,100.00
2022-10-09T08:50:18.468Z,100.00
2022-10-09T08:52:50.178Z,100.00
2022-10-09T08:55:21.033Z,100.00
2022-10-09T08:57:51.441Z,100.00
2022-10-09T09:00:22.671Z,100.00
2022-10-09T09:03:25.010Z,100.00
2022-10-09T09:05:55.683Z,100.00
2022-10-09T09:08:27.464Z,100.00
2022-10-09T09:10:58.833Z,100.00
2022-10-09T09:13:47.157Z,100.00
2022-10-09T09:16:20.671Z,100.00
2022-10-09T09:18:52.468Z,100.00
2022-10-09T09:21:27.477Z,100.00
2022-10-09T09:23:55.533Z,100.00
2022-10-09T09:26:23.887Z,100.00
2022-10-09T09:28:53.613Z,100.00
2022-10-09T09:31:25.017Z,100.00
2022-10-09T09:33:56.448Z,100.00
2022-10-09T09:36:25.649Z,97.69
2022-10-09T09:39:35.429Z,97.11
2022-10-09T09:41:42.869Z,93.11
2022-10-09T09:44:11.397Z,99.15
2022-10-09T09:46:41.207Z,100.00
2022-10-09T09:49:19.217Z,93.17
2022-10-09T09:51:47.413Z,93.92
2022-10-09T09:54:17.794Z,95.53
2022-10-09T09:59:34.989Z,90.72
2022-10-09T10:02:13.559Z,82.57
2022-10-09T10:04:50.594Z,78.18
2022-10-09T10:07:34.272Z,75.94
2022-10-09T10:10:08.760Z,79.43
2022-10-09T10:12:46.437Z,71.21
2022-10-09T10:15:25.454Z,72.51
2022-10-09T10:18:10.032Z,76.82
2022-10-09T10:20:44.457Z,78.05
2022-10-09T10:23:23.663Z,72.25
2022-10-09T10:29:46.024Z,68.01
2022-10-09T10:32:16.184Z,69.63
2022-10-09T10:34:49.614Z,59.96
2022-10-09T10:37:35.831Z,64.27
2022-10-09T10:40:17.316Z,66.10
2022-10-09T10:42:48.256Z,63.36
2022-10-09T10:45:29.528Z,68.14
2022-10-09T10:48:00.003Z,60.24
2022-10-09T10:50:37.497Z,58.32
2022-10-09T10:53:14.127Z,62.16
2022-10-09T10:55:48.726Z,62.31
2022-10-09T10:58:25.796Z,52.68
2022-10-09T11:01:03.457Z,59.86
2022-10-09T11:03:38.118Z,53.82
2022-10-09T11:06:12.549Z,52.09
2022-10-09T11:08:52.968Z,53.91
2022-10-09T11:11:42.757Z,55.97
2022-10-09T11:14:25.890Z,50.80
2022-10-09T11:17:03.595Z,51.69
2022-10-09T11:19:48.037Z,52.68
2022-10-09T11:22:27.613Z,53.23
2022-10-09T11:25:04.540Z,50.87
2022-10-09T11:34:38.622Z,48.79
2022-10-09T11:37:08.751Z,50.99
2022-10-09T11:39:38.775Z,49.24
2022-10-09T11:42:07.660Z,49.28
2022-10-09T11:44:42.604Z,50.85
2022-10-09T11:47:15.566Z,51.71
2022-10-09T11:50:14.419Z,51.13
2022-10-09T11:52:45.247Z,50.47
2022-10-09T11:55:25.679Z,50.29
2022-10-09T11:57:54.594Z,49.39
2022-10-09T12:00:30.825Z,48.37
2022-10-09T12:03:09.360Z,53.35
2022-10-09T12:05:41.315Z,51.36
2022-10-09T12:08:34.709Z,52.27
2022-10-09T12:11:16.531Z,50.95
2022-10-09T12:14:07.250Z,51.91
2022-10-09T12:17:35.490Z,51.05
2022-10-09T12:20:19.932Z,51.59
2022-10-09T12:23:25.670Z,51.97
2022-10-09T12:26:24.947Z,53.50
2022-10-09T12:29:43.219Z,51.58
2022-10-09T12:32:31.878Z,53.09
2022-10-09T12:35:05.325Z,51.64
2022-10-09T12:37:57.929Z,52.13
2022-10-09T12:40:39.074Z,50.84
2022-10-09T12:43:14.282Z,52.70
2022-10-09T12:45:46.930Z,51.55
2022-10-09T12:48:29.258Z,50.55
2022-10-09T12:50:58.883Z,50.67
2022-10-09T12:53:27.737Z,50.07
2022-10-09T12:56:01.360Z,52.52
2022-10-09T12:58:32.900Z,51.39
2022-10-09T13:01:03.350Z,51.30
2022-10-09T13:03:35.783Z,51.60
2022-10-09T13:06:03.949Z,51.90
2022-10-09T13:08:34.870Z,52.86
2022-10-09T13:11:10.484Z,54.39
2022-10-09T13:13:40.414Z,53.85
2022-10-09T13:16:09.582Z,53.85
2022-10-09T13:18:37.733Z,53.63
2022-10-09T13:21:07.339Z,53.08
2022-10-09T13:23:36.236Z,54.42
2022-10-09T13:26:06.119Z,54.09
2022-10-09T13:28:34.508Z,52.28
2022-10-09T13:31:10.105Z,54.98
2022-10-09T13:33:38.288Z,55.16
2022-10-09T13:36:06.864Z,55.74
2022-10-09T13:41:22.286Z,53.12
2022-10-09T13:43:51.117Z,55.89
2022-10-09T13:46:20.779Z,55.81
2022-10-09T13:48:48.988Z,56.14
2022-10-09T13:51:17.179Z,54.63
2022-10-09T13:53:45.540Z,56.33
2022-10-09T13:56:13.629Z,57.63
2022-10-09T13:58:41.722Z,58.99
2022-10-09T14:01:10.090Z,58.15
2022-10-09T14:03:40.477Z,57.90
2022-10-09T14:06:08.928Z,57.96
2022-10-09T14:08:38.416Z,58.88
2022-10-09T14:11:10.432Z,58.53
2022-10-09T14:13:39.907Z,60.33
2022-10-09T14:16:08.579Z,58.42
2022-10-09T14:18:43.252Z,58.40
2022-10-09T14:21:22.305Z,58.13
2022-10-09T14:23:59.747Z,57.51
2022-10-09T14:26:30.416Z,56.18
2022-10-09T14:29:00.091Z,58.05
2022-10-09T14:31:28.284Z,60.36
2022-10-09T14:33:57.484Z,61.47
2022-10-09T14:36:27.345Z,60.55
2022-10-09T14:38:55.436Z,61.14
2022-10-09T14:41:23.569Z,60.14
2022-10-09T14:43:56.794Z,62.33
2022-10-09T14:46:25.093Z,62.08
2022-10-09T14:48:55.037Z,61.20
2022-10-09T14:51:23.967Z,65.14
2022-10-09T14:53:56.553Z,64.40
2022-10-09T14:56:24.782Z,65.57
2022-10-09T14:58:52.887Z,64.69
2022-10-09T15:01:22.477Z,66.49
2022-10-09T15:03:50.650Z,67.87
2022-10-09T15:06:23.798Z,68.57
2022-10-09T15:08:55.485Z,67.13
2022-10-09T15:11:24.004Z,67.01
2022-10-09T15:13:59.102Z,67.16
2022-10-09T15:16:27.199Z,67.26
2022-10-09T15:18:55.896Z,66.80
2022-10-09T15:21:25.192Z,68.76
2022-10-09T15:23:55.906Z,70.71
2022-10-09T15:26:24.322Z,69.63
2022-10-09T15:28:52.472Z,68.80
2022-10-09T15:31:23.407Z,67.82
2022-10-09T15:33:51.918Z,68.82
2022-10-09T15:36:20.163Z,69.70
2022-10-09T15:38:48.353Z,71.12
2022-10-09T15:41:25.847Z,72.66
2022-10-09T15:43:55.392Z,74.43
2022-10-09T15:46:23.584Z,76.24
2022-10-09T15:48:51.756Z,76.42
2022-10-09T15:51:20.002Z,77.93
2022-10-09T15:53:50.028Z,79.00
2022-10-09T15:56:20.615Z,79.48
2022-10-09T15:58:50.301Z,79.84
2022-10-09T16:01:18.707Z,80.73
2022-10-09T16:11:01.600Z,84.46
2022-10-09T16:13:29.719Z,84.73
2022-10-09T16:15:59.846Z,85.52
2022-10-09T16:18:28.180Z,85.57
2022-10-09T16:21:34.454Z,87.20
2022-10-09T16:24:50.468Z,87.36
2022-10-09T16:27:44.849Z,88.27
2022-10-09T16:30:14.307Z,87.94
2022-10-09T16:32:43.911Z,89.29
2022-10-09T16:35:12.030Z,90.70
2022-10-09T16:37:40.517Z,91.61
2022-10-09T16:40:09.188Z,92.60
2022-10-09T16:42:37.250Z,93.04
2022-10-09T16:45:05.925Z,94.27
2022-10-09T16:47:34.113Z,94.89
2022-10-09T16:50:04.017Z,95.57
2022-10-09T16:52:32.090Z,96.33
2022-10-09T16:55:00.725Z,95.96
2022-10-09T16:57:28.909Z,96.38
2022-10-09T16:59:57.121Z,96.79
2022-10-09T17:02:25.765Z,96.92
2022-10-09T17:04:54.263Z,97.88
2022-10-09T17:07:24.666Z,98.25
2022-10-09T17:09:53.046Z,98.39
2022-10-09T17:12:27.249Z,98.43
2022-10-09T17:15:00.665Z,98.92
2022-10-09T17:17:29.103Z,99.71
2022-10-09T17:19:57.739Z,100.00
2022-10-09T17:22:27.333Z,100.00
2022-10-09T17:24:56.210Z,100.00
2022-10-09T17:27:24.364Z,100.00
2022-10-09T17:29:52.725Z,100.00
2022-10-09T17:32:21.183Z,100.00
2022-10-09T17:34:49.435Z,100.00
2022-10-09T17:37:17.693Z,100.00
2022-10-09T17:39:51.859Z,100.00
2022-10-09T17:42:20.622Z,100.00
2022-10-09T17:44:49.056Z,100.00
2022-10-09T17:47:17.166Z,100.00
2022-10-09T17:49:45.366Z,100.00
2022-10-09T17:52:13.491Z,100.00
2022-10-09T17:54:41.619Z,100.00
2022-10-09T17:57:12.564Z,100.00
2022-10-09T17:59:40.793Z,100.00
2022-10-09T18:02:11.440Z,100.00
2022-10-09T18:04:39.590Z,100.00
2022-10-09T18:07:07.871Z,100.00
2022-10-09T18:09:36.111Z,100.00
2022-10-09T18:12:04.365Z,100.00
2022-10-09T18:14:34.871Z,100.00
2022-10-09T18:17:02.929Z,100.00
2022-10-09T18:19:31.064Z,100.00
2022-10-09T18:21:59.195Z,100.00
2022-10-09T18:24:27.366Z,100.00
2022-10-09T18:26:55.793Z,100.00
2022-10-09T18:29:23.859Z,100.00
2022-10-09T18:31:55.747Z,100.00
2022-10-09T18:34:23.814Z,100.00
2022-10-09T18:36:52.360Z,100.00
2022-10-09T18:39:21.611Z,100.00
2022-10-09T18:41:49.633Z,100.00
2022-10-09T18:44:18.594Z,100.00
2022-10-09T18:46:47.790Z,100.00
2022-10-09T18:49:18.423Z,100.00
2022-10-09T18:51:46.796Z,100.00
2022-10-09T18:54:18.104Z,100.00
2022-10-09T18:56:46.328Z,100.00
2022-10-09T18:59:15.479Z,100.00
2022-10-09T19:01:43.601Z,100.00
2022-10-09T19:04:11.685Z,100.00
2022-10-09T19:06:41.458Z,100.00
2022-10-09T19:09:09.549Z,100.00
2022-10-09T19:11:37.708Z,100.00
2022-10-09T19:14:05.811Z,100.00
2022-10-09T19:16:34.493Z,100.00
2022-10-09T19:19:02.922Z,100.00
2022-10-09T19:21:33.725Z,100.00
2022-10-09T19:24:06.183Z,100.00
2022-10-09T19:26:35.359Z,100.00
2022-10-09T19:29:03.561Z,100.00
2022-10-09T19:31:32.382Z,100.00
2022-10-09T19:34:00.858Z,100.00
2022-10-09T19:36:33.128Z,100.00
2022-10-09T19:39:02.813Z,100.00
2022-10-09T19:41:30.910Z,100.00
2022-10-09T19:43:59.664Z,100.00
2022-10-09T19:46:28.140Z,100.00
2022-10-09T19:48:56.230Z,100.00
2022-10-09T19:51:25.261Z,100.00
2022-10-09T19:53:54.816Z,100.00
2022-10-09T19:56:26.233Z,100.00
2022-10-09T19:58:54.912Z,100.00
2022-10-09T20:01:24.731Z,100.00
2022-10-09T20:03:55.055Z,100.00
2022-10-09T20:06:23.148Z,100.00
2022-10-09T20:08:51.448Z,100.00
2022-10-09T20:11:20.701Z,100.00
2022-10-09T20:13:55.559Z,100.00
2022-10-09T20:16:24.472Z,100.00
2022-10-09T20:18:52.525Z,100.00
2022-10-09T20:21:20.613Z,100.00
2022-10-09T20:23:49.304Z,100.00
2022-10-09T20:26:18.378Z,100.00
2022-10-09T20:28:46.603Z,100.00
2022-10-09T20:31:18.198Z,100.00
2022-10-09T20:33:46.689Z,100.00
2022-10-09T20:36:19.616Z,100.00
2022-10-09T20:38:47.784Z,100.00
2022-10-09T20:41:16.141Z,100.00
2022-10-09T20:43:44.217Z,100.00
2022-10-09T20:46:13.534Z,100.00
2022-10-09T20:48:43.381Z,100.00
2022-10-09T20:51:11.499Z,100.00
2022-10-09T20:53:39.860Z,100.00
2022-10-09T20:56:09.749Z,100.00
2022-10-09T20:58:37.977Z,100.00
2022-10-09T21:01:07.103Z,100.00
2022-10-09T21:03:35.231Z,100.00
2022-10-09T21:06:05.564Z,100.00
2022-10-09T21:08:33.948Z,98.45
2022-10-09T21:11:02.045Z,95.84
2022-10-09T21:13:30.190Z,94.49
2022-10-09T21:15:58.179Z,95.19
2022-10-09T21:18:26.243Z,94.38
2022-10-09T21:20:54.628Z,93.37
2022-10-09T21:23:24.045Z,93.81
2022-10-09T21:25:52.989Z,93.07
2022-10-09T21:28:21.779Z,92.47
2022-10-09T21:30:49.872Z,93.43
2022-10-09T21:33:18.301Z,92.88
2022-10-09T21:35:47.163Z,92.05
2022-10-09T21:38:17.068Z,94.12
2022-10-09T21:40:46.570Z,95.25
2022-10-09T21:43:14.641Z,95.66
2022-10-09T21:45:42.795Z,96.12
2022-10-09T21:48:11.593Z,97.04
2022-10-09T21:50:39.701Z,96.33
2022-10-09T21:53:07.747Z,96.57
2022-10-09T21:55:35.743Z,96.67
2022-10-09T21:58:05.245Z,94.29
2022-10-09T22:00:33.592Z,92.87
2022-10-09T22:03:01.664Z,92.67
2022-10-09T22:05:29.696Z,94.46
2022-10-09T22:07:57.707Z,94.38
2022-10-09T22:10:25.788Z,93.55
2022-10-09T22:12:53.878Z,94.71
2022-10-09T22:15:23.643Z,96.55
2022-10-09T22:17:51.686Z,98.03
2022-10-09T22:20:19.930Z,97.07
2022-10-09T22:22:48.328Z,95.70
2022-10-09T22:25:16.702Z,93.33
2022-10-09T22:27:44.801Z,93.60
2022-10-09T22:30:13.947Z,91.80
2022-10-09T22:32:43.435Z,92.11
2022-10-09T22:35:11.509Z,90.98
2022-10-09T22:37:39.546Z,89.59
2022-10-09T22:40:08.356Z,91.79
2022-10-09T22:42:36.764Z,92.27
2022-10-09T22:45:05.122Z,89.14
2022-10-09T22:47:33.124Z,87.57
2022-10-09T22:50:02.605Z,83.21
2022-10-09T22:52:30.712Z,84.36
2022-10-09T22:55:00.604Z,84.52
2022-10-09T22:57:28.980Z,85.49
2022-10-09T22:59:56.951Z,84.34
2022-10-09T23:02:24.980Z,83.94
2022-10-09T23:04:53.069Z,84.36
2022-10-09T23:07:22.474Z,82.82
2022-10-09T23:09:50.872Z,83.87
2022-10-09T23:12:18.975Z,81.95
2022-10-09T23:14:47.069Z,82.46
2022-10-09T23:17:15.173Z,81.72
2022-10-09T23:19:43.222Z,82.03
2022-10-09T23:22:11.265Z,81.15
2022-10-09T23:24:41.021Z,83.02
2022-10-09T23:27:09.044Z,82.13
2022-10-09T23:29:37.044Z,83.08
2022-10-09T23:32:05.084Z,81.05
2022-10-09T23:34:33.081Z,79.86
2022-10-09T23:37:01.375Z,81.11
2022-10-09T23:39:29.539Z,80.08
2022-10-09T23:41:58.918Z,78.69
2022-10-09T23:44:27.010Z,77.51
2022-10-09T23:46:55.004Z,78.69
2022-10-09T23:49:23.075Z,77.21
2022-10-09T23:51:51.376Z,75.96
2022-10-09T23:54:19.957Z,75.62
2022-10-09T23:56:48.028Z,76.61
2022-10-09T23:59:17.430Z,75.91
